默认 日期 大小 文件数 浏览量 最新下载 xml
of feet磁力链接相关资源由用户搜索指令自动获取,结果来源于网络,本站不存储任何资料,亦不承担任何责任,请于24小时内删除,搜索到413个磁力,用时39ms。
    ... Feet Under - Crypt Of The Devil.png": 86392490, "Six Feet Under 2015 Crypt Of ... The Devil.cue": 915, "Six Feet Under ... 2015 Crypt Of The Devil.flac": 1394268770, "Six Feet Under - Crypt Of ...
创建时间: 2018-10-29 17:10:40 大小:1.46 GB 文件数量:6 热度:32 最近下载:2025-09-18 07:47:01
    {"p4l.nfo": 3646, "file_id.diz": 187, "RARBG.com.txt": 34, "22451-h-001.jpg": 3653700, "22451-h-002.jpg": 2271321, "22451-h-003.jpg": 3345421, "22451-h-004.jpg": 3135285, "22451-h-005.jpg": 2968303, "22451-h-006.jpg": 2589320, "22451-h-007.jpg": 3117628, " ...
创建时间: 2018-10-29 17:46:24 大小:425.42 MB 文件数量:136 热度:96 最近下载:2025-09-17 01:54:01
    ... .flac": 21417908, "02 - Dance Of Love.flac": 17603403, "03 - ... , "Michael Flatley's Feet Of Flames + Lord Of The Dance.cue": 4279 ... - Michael Flatley's Feet Of Flames + Lord Of The Dance.log": ... - Michael Flatley's Feet Of Flames + Lord Of The Dance.m3u": 2044 ...
创建时间: 2018-10-29 21:47:19 大小:500.43 MB 文件数量:35 热度:28 最近下载:2025-05-31 11:27:03
    {"Cover.jpg": 372715, "7. Stab.mp3": 9314616, "1. Gruesome.mp3": 7478739, "6. Slit Wrists.mp3": 9384638, "5. Lost Remains.mp3": 8223759, "2. Open Coffin Orgy.mp3": 10495375, "8. The Night Bleeds.mp3": 9982330, "10. Eternal Darkness.mp3": 10095180, "3. ...
创建时间: 2018-10-30 00:37:19 大小:85.05 MB 文件数量:11 热度:36 最近下载:2025-08-07 08:57:02
    ... Coming.mp3": 8449221, "10. Seed of Filth.mp3": 12524323, "01. ... .mp3": 8896451, "08. Shadow of the Reaper.mp3": 9378149, "09 ... . Ghosts of the Undead.mp3": 10143014, "05 ... . Victim of the Paranoid.mp3": 8059492, "06 ...
创建时间: 2018-10-30 01:03:03 大小:121.55 MB 文件数量:16 热度:32 最近下载:2025-10-05 12:15:02
    {"PurpleCockboard.wmv": 111143893}
创建时间: 2018-10-30 07:53:58 大小:106 MB 文件数量:1 热度:22 最近下载:2025-05-31 11:27:04
    ... , "national.geographic.explorer.mystery.of.the.disembodied.feet.hdtv.xvid-momentum.avi ... "national.geographic.explorer.mystery.of.the.disembodied.feet.hdtv.xvid-momentum.nfo ... "national.geographic.explorer.mystery.of.the.disembodied.feet.hdtv.xvid-momentum.sfv ...
创建时间: 2018-10-30 13:31:42 大小:349.81 MB 文件数量:5 热度:19 最近下载:2025-09-19 04:36:03
    ... 's Feet Of Flames.ape": 268573368, "Ronan Hardiman - Michael Flatley's Feet Of Flames ... .cue": 1547, "Ronan Hardiman - Michael Flatley's Feet Of Flames ...
创建时间: 2018-10-30 21:46:13 大小:256.28 MB 文件数量:5 热度:16 最近下载:2025-05-31 11:27:02
    {"22451-540p.mp4": 415948599}
创建时间: 2018-10-31 07:57:15 大小:396.68 MB 文件数量:1 热度:64 最近下载:2025-08-05 08:39:07
    {"v430018-299.mp4": 761661166, "Torrent downloaded from PublicHash.com.txt": 414}
创建时间: 2018-11-01 17:15:51 大小:726.38 MB 文件数量:2 热度:53 最近下载:2025-08-05 09:44:08
    {"RARBG.com.txt": 34, "futilestruggles.ashley.grahams.test.400.feet.of.rope.and.3.gags-part.3.xxx.hr.wmv-hushhush.nfo": 20399, "futilestruggles.ashley.grahams.test.400.feet.of.rope.and.3.gags-part.3.xxx.hr.wmv-hushhush.wmv": 339533370}
创建时间: 2018-11-02 20:14:05 大小:323.82 MB 文件数量:3 热度:24 最近下载:2025-08-19 17:55:02
    {"22451-H-001.jpg": 3653700, "22451-H-002.jpg": 2271321, "22451-H-003.jpg": 3345421, "22451-H-004.jpg": 3135285, "22451-H-005.jpg": 2968303, "22451-H-006.jpg": 2589320, "22451-H-007.jpg": 3117628, "22451-H-008.jpg": 2936693, "22451-H-009.jpg": 3172271, " ...
创建时间: 2018-11-07 02:44:09 大小:424.93 MB 文件数量:132 热度:32 最近下载:2025-09-17 03:25:02
    ... Sun.mp3": 12454988, "01. Speed of Evil.mp3": 9638989, "09. Eye ... Eye.mp3": 8560657, "12. Land of Murder.mp3": 8908609, "04. Lockdown ...
创建时间: 2018-11-07 17:08:00 大小:119.86 MB 文件数量:13 热度:9 最近下载:2024-10-01 05:23:01
    {"Anna Coprofield - My feet receive a portion of shit part 1.mp4": 2018547747, "Anna Coprofield - My feet receive a portion of shit part 2.mp4": 1107882872}
创建时间: 2018-11-07 20:54:08 大小:2.91 GB 文件数量:2 热度:15 最近下载:2025-05-09 03:35:02
    ... Feet Under - Crypt Of The Devil 001.jpg": 1575722, "Six Feet Under - Crypt Of ... The Devil 002.jpg": 1525242, "Six Feet Under - Crypt Of ... Feet Under - Crypt Of The Devil 008.jpg": 1599555}, "Six Feet Under - Crypt Of ...
创建时间: 2018-11-09 17:29:25 大小:291.84 MB 文件数量:11 热度:9 最近下载:2025-03-12 07:02:03
    {"RARBG.com.txt": 34, "FutileStruggles.I.Get.600.Feet.Of.Rope.And.A.Serene.For.My.Birthday-Part.3.XXX.HR.WMV-hUSHhUSH.wmv": 320058489, "futilestruggles.i.get.600.feet.of.rope.and.a.serene.for.my.birthday-part.3.xxx.hr.wmv-hushhush.nfo": 20506}
创建时间: 2018-11-10 05:22:30 大小:305.25 MB 文件数量:3 热度:19 最近下载:2025-08-22 06:25:01
    ... Coming.mp3": 8449221, "10. Seed of Filth.mp3": 12524323, "01. ... .mp3": 8896451, "08. Shadow of the Reaper.mp3": 9378149, "09 ... . Ghosts of the Undead.mp3": 10143014, "05 ... . Victim of the Paranoid.mp3": 8059492, "06 ...
创建时间: 2018-11-11 02:58:49 大小:121.55 MB 文件数量:16 热度:8 最近下载:2025-02-24 19:38:02
    ... Brutalize.mp3": 8275783, "Six Feet Under - Crypt Of The Devil (2015) [MuSi ...
创建时间: 2018-11-11 20:22:16 大小:88.61 MB 文件数量:12 热度:10 最近下载:2025-02-22 23:58:04
    {"RARBG.com.txt": 34, "footart-130727-sexors.mp4": 1593220149, "footart-130727-sexors.nfo": 310}
创建时间: 2018-11-12 14:37:43 大小:1.48 GB 文件数量:3 热度:36 最近下载:2025-02-28 05:58:02
    ... .Assassins.S01E10.Sacred.Band.of.Thebes.HDTV.x264-FEET.mkv": 303114063, "ancient ... .assassins.s01e10.sacred.band.of.thebes.hdtv.x264-feet ...
创建时间: 2018-11-13 13:00:01 大小:290.91 MB 文件数量:7 热度:11 最近下载:2025-09-21 04:49:04